sensor_id;sensor_type;location;lat;lon;timestamp;P1;durP1;ratioP1;P2;durP2;ratioP2
22107;SDS011;11220;48.812;9.128;2022-09-21T09:06:21;0.40;;;0.40;;
22107;SDS011;11220;48.812;9.128;2022-09-21T09:08:57;0.98;;;0.50;;
22107;SDS011;11220;48.812;9.128;2022-09-21T09:17:15;0.30;;;0.30;;
22107;SDS011;11220;48.812;9.128;2022-09-21T09:19:59;0.40;;;0.40;;
22107;SDS011;11220;48.812;9.128;2022-09-21T09:22:36;0.50;;;0.50;;
22107;SDS011;11220;48.812;9.128;2022-09-21T09:25:19;0.63;;;0.47;;
22107;SDS011;11220;48.812;9.128;2022-09-21T09:27:47;0.32;;;0.30;;
22107;SDS011;11220;48.812;9.128;2022-09-21T09:32:51;0.40;;;0.40;;
22107;SDS011;11220;48.812;9.128;2022-09-21T09:38:20;0.65;;;0.50;;
22107;SDS011;11220;48.812;9.128;2022-09-21T09:40:57;0.55;;;0.50;;
22107;SDS011;11220;48.812;9.128;2022-09-21T09:43:29;0.52;;;0.50;;
22107;SDS011;11220;48.812;9.128;2022-09-21T09:49:46;0.40;;;0.40;;
22107;SDS011;11220;48.812;9.128;2022-09-21T09:52:24;0.50;;;0.50;;
22107;SDS011;11220;48.812;9.128;2022-09-21T09:54:50;0.43;;;0.43;;
22107;SDS011;11220;48.812;9.128;2022-09-21T09:57:19;0.47;;;0.40;;
22107;SDS011;11220;48.812;9.128;2022-09-21T09:59:52;0.73;;;0.60;;
22107;SDS011;11220;48.812;9.128;2022-09-21T10:02:21;0.40;;;0.38;;
22107;SDS011;11220;48.812;9.128;2022-09-21T10:04:58;0.50;;;0.47;;
22107;SDS011;11220;48.812;9.128;2022-09-21T10:07:37;0.30;;;0.30;;
22107;SDS011;11220;48.812;9.128;2022-09-21T10:10:13;0.30;;;0.30;;
22107;SDS011;11220;48.812;9.128;2022-09-21T10:12:48;0.30;;;0.30;;
22107;SDS011;11220;48.812;9.128;2022-09-21T10:15:16;0.43;;;0.30;;
22107;SDS011;11220;48.812;9.128;2022-09-21T10:17:45;0.20;;;0.20;;
22107;SDS011;11220;48.812;9.128;2022-09-21T10:20:16;0.40;;;0.30;;
22107;SDS011;11220;48.812;9.128;2022-09-21T10:22:45;0.30;;;0.30;;
22107;SDS011;11220;48.812;9.128;2022-09-21T10:25:17;0.35;;;0.30;;
22107;SDS011;11220;48.812;9.128;2022-09-21T10:27:44;0.40;;;0.40;;
22107;SDS011;11220;48.812;9.128;2022-09-21T10:32:54;0.22;;;0.22;;
22107;SDS011;11220;48.812;9.128;2022-09-21T10:35:21;0.60;;;0.40;;
22107;SDS011;11220;48.812;9.128;2022-09-21T10:37:48;0.32;;;0.30;;
22107;SDS011;11220;48.812;9.128;2022-09-21T10:40:32;0.50;;;0.30;;
22107;SDS011;11220;48.812;9.128;2022-09-21T10:43:00;0.28;;;0.20;;
22107;SDS011;11220;48.812;9.128;2022-09-21T10:45:27;0.50;;;0.40;;
22107;SDS011;11220;48.812;9.128;2022-09-21T10:48:14;0.50;;;0.40;;
22107;SDS011;11220;48.812;9.128;2022-09-21T10:50:46;0.50;;;0.50;;
22107;SDS011;11220;48.812;9.128;2022-09-21T10:55:51;0.30;;;0.30;;
22107;SDS011;11220;48.812;9.128;2022-09-21T10:58:20;0.20;;;0.20;;
22107;SDS011;11220;48.812;9.128;2022-09-21T11:00:46;0.35;;;0.32;;
22107;SDS011;11220;48.812;9.128;2022-09-21T11:03:27;0.50;;;0.43;;
22107;SDS011;11220;48.812;9.128;2022-09-21T11:06:18;0.30;;;0.22;;
22107;SDS011;11220;48.812;9.128;2022-09-21T11:08:50;0.32;;;0.30;;
22107;SDS011;11220;48.812;9.128;2022-09-21T11:13:52;0.32;;;0.30;;
22107;SDS011;11220;48.812;9.128;2022-09-21T11:16:27;0.28;;;0.20;;
22107;SDS011;11220;48.812;9.128;2022-09-21T11:19:01;0.20;;;0.20;;
22107;SDS011;11220;48.812;9.128;2022-09-21T11:21:46;0.20;;;0.20;;
22107;SDS011;11220;48.812;9.128;2022-09-21T11:27:23;0.30;;;0.28;;
22107;SDS011;11220;48.812;9.128;2022-09-21T11:30:04;0.20;;;0.20;;
22107;SDS011;11220;48.812;9.128;2022-09-21T11:38:03;0.30;;;0.30;;
22107;SDS011;11220;48.812;9.128;2022-09-21T11:57:57;0.28;;;0.28;;
22107;SDS011;11220;48.812;9.128;2022-09-21T12:00:42;0.20;;;0.20;;
22107;SDS011;11220;48.812;9.128;2022-09-21T12:11:53;0.55;;;0.30;;
22107;SDS011;11220;48.812;9.128;2022-09-21T12:14:50;0.20;;;0.20;;
22107;SDS011;11220;48.812;9.128;2022-09-21T12:23:18;0.35;;;0.35;;
22107;SDS011;11220;48.812;9.128;2022-09-21T12:25:48;0.35;;;0.20;;
22107;SDS011;11220;48.812;9.128;2022-09-21T12:28:19;0.30;;;0.20;;
22107;SDS011;11220;48.812;9.128;2022-09-21T12:31:00;0.22;;;0.20;;
22107;SDS011;11220;48.812;9.128;2022-09-21T12:36:11;0.30;;;0.20;;
22107;SDS011;11220;48.812;9.128;2022-09-21T12:38:43;0.35;;;0.35;;
22107;SDS011;11220;48.812;9.128;2022-09-21T12:41:31;0.20;;;0.20;;
22107;SDS011;11220;48.812;9.128;2022-09-21T12:44:14;0.20;;;0.20;;
22107;SDS011;11220;48.812;9.128;2022-09-21T12:47:08;0.30;;;0.20;;
22107;SDS011;11220;48.812;9.128;2022-09-21T12:49:43;0.25;;;0.20;;
22107;SDS011;11220;48.812;9.128;2022-09-21T12:52:19;0.20;;;0.20;;
22107;SDS011;11220;48.812;9.128;2022-09-21T13:00:23;0.20;;;0.20;;
22107;SDS011;11220;48.812;9.128;2022-09-21T13:07:57;0.20;;;0.20;;
22107;SDS011;11220;48.812;9.128;2022-09-21T13:10:44;0.30;;;0.20;;
22107;SDS011;11220;48.812;9.128;2022-09-21T13:13:47;0.20;;;0.20;;
22107;SDS011;11220;48.812;9.128;2022-09-21T13:16:35;0.20;;;0.20;;
22107;SDS011;11220;48.812;9.128;2022-09-21T13:19:15;0.20;;;0.20;;
22107;SDS011;11220;48.812;9.128;2022-09-21T13:21:52;0.25;;;0.20;;
22107;SDS011;11220;48.812;9.128;2022-09-21T13:27:55;0.20;;;0.20;;
22107;SDS011;11220;48.812;9.128;2022-09-21T13:33:29;0.30;;;0.20;;
22107;SDS011;11220;48.812;9.128;2022-09-21T13:36:32;0.20;;;0.20;;
22107;SDS011;11220;48.812;9.128;2022-09-21T13:39:13;0.22;;;0.22;;
22107;SDS011;11220;48.812;9.128;2022-09-21T13:41:42;0.30;;;0.20;;
22107;SDS011;11220;48.812;9.128;2022-09-21T13:47:07;0.20;;;0.20;;
22107;SDS011;11220;48.812;9.128;2022-09-21T13:49:43;0.20;;;0.20;;
22107;SDS011;11220;48.812;9.128;2022-09-21T13:55:04;0.20;;;0.10;;
22107;SDS011;11220;48.812;9.128;2022-09-21T13:57:44;0.20;;;0.20;;
22107;SDS011;11220;48.812;9.128;2022-09-21T14:02:43;0.80;;;0.20;;
22107;SDS011;11220;48.812;9.128;2022-09-21T14:08:04;0.28;;;0.10;;
22107;SDS011;11220;48.812;9.128;2022-09-21T14:10:45;0.10;;;0.10;;
22107;SDS011;11220;48.812;9.128;2022-09-21T14:13:30;0.20;;;0.20;;
22107;SDS011;11220;48.812;9.128;2022-09-21T14:18:53;0.35;;;0.28;;
22107;SDS011;11220;48.812;9.128;2022-09-21T14:21:21;0.38;;;0.35;;
22107;SDS011;11220;48.812;9.128;2022-09-21T14:24:48;0.10;;;0.10;;
22107;SDS011;11220;48.812;9.128;2022-09-21T14:26:51;0.10;;;0.10;;
22107;SDS011;11220;48.812;9.128;2022-09-21T14:29:28;0.10;;;0.10;;
22107;SDS011;11220;48.812;9.128;2022-09-21T14:32:10;0.30;;;0.10;;
22107;SDS011;11220;48.812;9.128;2022-09-21T14:35:21;0.35;;;0.17;;
22107;SDS011;11220;48.812;9.128;2022-09-21T14:37:50;0.30;;;0.28;;
22107;SDS011;11220;48.812;9.128;2022-09-21T14:40:22;0.20;;;0.20;;
22107;SDS011;11220;48.812;9.128;2022-09-21T14:43:07;0.15;;;0.15;;
22107;SDS011;11220;48.812;9.128;2022-09-21T14:51:07;0.20;;;0.10;;
22107;SDS011;11220;48.812;9.128;2022-09-21T14:53:52;0.20;;;0.13;;
22107;SDS011;11220;48.812;9.128;2022-09-21T15:06:08;0.17;;;0.17;;
22107;SDS011;11220;48.812;9.128;2022-09-21T15:17:54;0.30;;;0.20;;
22107;SDS011;11220;48.812;9.128;2022-09-21T15:20:25;0.10;;;0.10;;
22107;SDS011;11220;48.812;9.128;2022-09-21T15:22:56;0.20;;;0.20;;
22107;SDS011;11220;48.812;9.128;2022-09-21T15:25:24;0.40;;;0.20;;
22107;SDS011;11220;48.812;9.128;2022-09-21T15:27:54;0.20;;;0.20;;
22107;SDS011;11220;48.812;9.128;2022-09-21T15:30:20;0.22;;;0.22;;
22107;SDS011;11220;48.812;9.128;2022-09-21T15:32:55;0.10;;;0.10;;
22107;SDS011;11220;48.812;9.128;2022-09-21T15:35:24;0.13;;;0.10;;
22107;SDS011;11220;48.812;9.128;2022-09-21T15:37:52;0.40;;;0.20;;
22107;SDS011;11220;48.812;9.128;2022-09-21T15:40:23;0.17;;;0.10;;
22107;SDS011;11220;48.812;9.128;2022-09-21T15:45:25;0.17;;;0.17;;
22107;SDS011;11220;48.812;9.128;2022-09-21T15:47:52;0.15;;;0.15;;
22107;SDS011;11220;48.812;9.128;2022-09-21T15:50:19;0.17;;;0.13;;
22107;SDS011;11220;48.812;9.128;2022-09-21T15:52:50;0.28;;;0.10;;
22107;SDS011;11220;48.812;9.128;2022-09-21T15:55:21;0.25;;;0.22;;
22107;SDS011;11220;48.812;9.128;2022-09-21T15:57:48;0.15;;;0.10;;
22107;SDS011;11220;48.812;9.128;2022-09-21T16:02:55;0.65;;;0.20;;
22107;SDS011;11220;48.812;9.128;2022-09-21T16:05:30;0.13;;;0.10;;
22107;SDS011;11220;48.812;9.128;2022-09-21T16:08:06;0.32;;;0.20;;
22107;SDS011;11220;48.812;9.128;2022-09-21T16:11:11;0.20;;;0.20;;
22107;SDS011;11220;48.812;9.128;2022-09-21T16:13:39;0.10;;;0.10;;
22107;SDS011;11220;48.812;9.128;2022-09-21T16:16:24;0.15;;;0.15;;
22107;SDS011;11220;48.812;9.128;2022-09-21T16:18:51;0.10;;;0.10;;
22107;SDS011;11220;48.812;9.128;2022-09-21T16:23:48;0.15;;;0.15;;
22107;SDS011;11220;48.812;9.128;2022-09-21T16:26:20;0.20;;;0.20;;
22107;SDS011;11220;48.812;9.128;2022-09-21T16:31:40;0.20;;;0.13;;
22107;SDS011;11220;48.812;9.128;2022-09-21T16:34:17;0.25;;;0.15;;
22107;SDS011;11220;48.812;9.128;2022-09-21T16:36:57;0.10;;;0.10;;
22107;SDS011;11220;48.812;9.128;2022-09-21T16:39:23;0.17;;;0.17;;
22107;SDS011;11220;48.812;9.128;2022-09-21T16:41:53;0.20;;;0.10;;
22107;SDS011;11220;48.812;9.128;2022-09-21T16:44:24;0.22;;;0.22;;
22107;SDS011;11220;48.812;9.128;2022-09-21T16:46:58;0.10;;;0.10;;
22107;SDS011;11220;48.812;9.128;2022-09-21T16:49:26;0.10;;;0.10;;
22107;SDS011;11220;48.812;9.128;2022-09-21T16:51:55;0.30;;;0.20;;
22107;SDS011;11220;48.812;9.128;2022-09-21T16:54:21;0.15;;;0.15;;
22107;SDS011;11220;48.812;9.128;2022-09-21T16:56:50;0.20;;;0.20;;
22107;SDS011;11220;48.812;9.128;2022-09-21T16:59:18;0.20;;;0.20;;
22107;SDS011;11220;48.812;9.128;2022-09-21T17:01:45;0.40;;;0.20;;
22107;SDS011;11220;48.812;9.128;2022-09-21T17:04:15;0.20;;;0.20;;
22107;SDS011;11220;48.812;9.128;2022-09-21T17:06:41;0.50;;;0.22;;
22107;SDS011;11220;48.812;9.128;2022-09-21T17:09:11;0.10;;;0.10;;
22107;SDS011;11220;48.812;9.128;2022-09-21T17:11:39;0.13;;;0.10;;
22107;SDS011;11220;48.812;9.128;2022-09-21T17:14:09;0.20;;;0.17;;
22107;SDS011;11220;48.812;9.128;2022-09-21T17:16:37;0.15;;;0.15;;
22107;SDS011;11220;48.812;9.128;2022-09-21T17:19:03;0.20;;;0.20;;
22107;SDS011;11220;48.812;9.128;2022-09-21T17:21:29;0.20;;;0.20;;
22107;SDS011;11220;48.812;9.128;2022-09-21T17:23:55;0.30;;;0.20;;
22107;SDS011;11220;48.812;9.128;2022-09-21T17:26:20;0.10;;;0.10;;
22107;SDS011;11220;48.812;9.128;2022-09-21T17:28:46;0.10;;;0.10;;
22107;SDS011;11220;48.812;9.128;2022-09-21T17:31:12;0.22;;;0.22;;
22107;SDS011;11220;48.812;9.128;2022-09-21T17:33:40;0.10;;;0.10;;
22107;SDS011;11220;48.812;9.128;2022-09-21T17:36:08;0.10;;;0.10;;
22107;SDS011;11220;48.812;9.128;2022-09-21T17:38:39;0.10;;;0.10;;
22107;SDS011;11220;48.812;9.128;2022-09-21T17:49:20;0.10;;;0.10;;
22107;SDS011;11220;48.812;9.128;2022-09-21T17:51:55;0.40;;;0.10;;
22107;SDS011;11220;48.812;9.128;2022-09-21T17:55:20;0.10;;;0.10;;
22107;SDS011;11220;48.812;9.128;2022-09-21T18:01:25;0.10;;;0.10;;
22107;SDS011;11220;48.812;9.128;2022-09-21T18:06:38;0.20;;;0.20;;
22107;SDS011;11220;48.812;9.128;2022-09-21T18:09:24;0.32;;;0.10;;
22107;SDS011;11220;48.812;9.128;2022-09-21T18:12:07;0.20;;;0.10;;
22107;SDS011;11220;48.812;9.128;2022-09-21T18:20:17;0.15;;;0.15;;
22107;SDS011;11220;48.812;9.128;2022-09-21T18:23:13;0.10;;;0.10;;
22107;SDS011;11220;48.812;9.128;2022-09-21T18:25:39;0.17;;;0.10;;
22107;SDS011;11220;48.812;9.128;2022-09-21T18:28:16;0.20;;;0.20;;
22107;SDS011;11220;48.812;9.128;2022-09-21T18:45:27;0.10;;;0.10;;
22107;SDS011;11220;48.812;9.128;2022-09-21T18:53:55;0.10;;;0.10;;
22107;SDS011;11220;48.812;9.128;2022-09-21T18:56:25;0.10;;;0.10;;
22107;SDS011;11220;48.812;9.128;2022-09-21T18:58:54;0.20;;;0.13;;
22107;SDS011;11220;48.812;9.128;2022-09-21T19:01:22;0.10;;;0.10;;
22107;SDS011;11220;48.812;9.128;2022-09-21T19:03:48;0.20;;;0.20;;
22107;SDS011;11220;48.812;9.128;2022-09-21T19:06:20;0.20;;;0.10;;
22107;SDS011;11220;48.812;9.128;2022-09-21T19:14:25;0.13;;;0.10;;
22107;SDS011;11220;48.812;9.128;2022-09-21T19:25:47;0.25;;;0.10;;
22107;SDS011;11220;48.812;9.128;2022-09-21T19:31:09;0.10;;;0.00;;
22107;SDS011;11220;48.812;9.128;2022-09-21T19:33:36;0.35;;;0.20;;
22107;SDS011;11220;48.812;9.128;2022-09-21T19:36:02;0.00;;;0.00;;
22107;SDS011;11220;48.812;9.128;2022-09-21T19:38:29;0.10;;;0.10;;
22107;SDS011;11220;48.812;9.128;2022-09-21T19:40:58;0.28;;;0.20;;
22107;SDS011;11220;48.812;9.128;2022-09-21T19:43:32;0.20;;;0.10;;
22107;SDS011;11220;48.812;9.128;2022-09-21T19:49:30;0.10;;;0.10;;
22107;SDS011;11220;48.812;9.128;2022-09-21T19:52:02;0.13;;;0.10;;
22107;SDS011;11220;48.812;9.128;2022-09-21T19:54:29;0.10;;;0.10;;
22107;SDS011;11220;48.812;9.128;2022-09-21T19:57:14;0.20;;;0.10;;
22107;SDS011;11220;48.812;9.128;2022-09-21T20:00:07;0.55;;;0.20;;
22107;SDS011;11220;48.812;9.128;2022-09-21T20:02:37;0.20;;;0.20;;
22107;SDS011;11220;48.812;9.128;2022-09-21T20:05:10;0.17;;;0.17;;
22107;SDS011;11220;48.812;9.128;2022-09-21T20:07:48;0.17;;;0.10;;
22107;SDS011;11220;48.812;9.128;2022-09-21T20:10:33;0.10;;;0.10;;
22107;SDS011;11220;48.812;9.128;2022-09-21T20:16:04;0.10;;;0.10;;
22107;SDS011;11220;48.812;9.128;2022-09-21T20:18:47;0.10;;;0.10;;
22107;SDS011;11220;48.812;9.128;2022-09-21T20:21:22;0.10;;;0.10;;
22107;SDS011;11220;48.812;9.128;2022-09-21T20:23:55;0.20;;;0.00;;
22107;SDS011;11220;48.812;9.128;2022-09-21T20:26:26;0.13;;;0.10;;
22107;SDS011;11220;48.812;9.128;2022-09-21T20:28:52;0.30;;;0.20;;
22107;SDS011;11220;48.812;9.128;2022-09-21T20:31:22;0.10;;;0.10;;
22107;SDS011;11220;48.812;9.128;2022-09-21T20:33:49;0.32;;;0.20;;
22107;SDS011;11220;48.812;9.128;2022-09-21T20:36:15;0.15;;;0.10;;
22107;SDS011;11220;48.812;9.128;2022-09-21T20:38:41;0.10;;;0.10;;
22107;SDS011;11220;48.812;9.128;2022-09-21T20:41:13;0.43;;;0.10;;
22107;SDS011;11220;48.812;9.128;2022-09-21T20:43:40;0.10;;;0.10;;
22107;SDS011;11220;48.812;9.128;2022-09-21T20:46:09;0.10;;;0.10;;
22107;SDS011;11220;48.812;9.128;2022-09-21T20:48:35;0.17;;;0.10;;
22107;SDS011;11220;48.812;9.128;2022-09-21T20:51:02;0.20;;;0.10;;
22107;SDS011;11220;48.812;9.128;2022-09-21T20:53:31;0.20;;;0.20;;
22107;SDS011;11220;48.812;9.128;2022-09-21T20:55:58;0.20;;;0.10;;
22107;SDS011;11220;48.812;9.128;2022-09-21T20:58:27;0.10;;;0.10;;
22107;SDS011;11220;48.812;9.128;2022-09-21T21:00:53;0.10;;;0.10;;
22107;SDS011;11220;48.812;9.128;2022-09-21T21:03:19;0.10;;;0.10;;
22107;SDS011;11220;48.812;9.128;2022-09-21T21:05:45;0.10;;;0.10;;
22107;SDS011;11220;48.812;9.128;2022-09-21T21:08:11;0.28;;;0.10;;
22107;SDS011;11220;48.812;9.128;2022-09-21T21:10:37;0.10;;;0.10;;
22107;SDS011;11220;48.812;9.128;2022-09-21T21:13:03;0.15;;;0.05;;
22107;SDS011;11220;48.812;9.128;2022-09-21T21:15:29;0.40;;;0.20;;
22107;SDS011;11220;48.812;9.128;2022-09-21T21:17:55;0.15;;;0.15;;
22107;SDS011;11220;48.812;9.128;2022-09-21T21:20:21;0.10;;;0.10;;
22107;SDS011;11220;48.812;9.128;2022-09-21T21:22:47;0.20;;;0.20;;
22107;SDS011;11220;48.812;9.128;2022-09-21T21:25:14;0.10;;;0.10;;
22107;SDS011;11220;48.812;9.128;2022-09-21T21:27:40;0.20;;;0.20;;
22107;SDS011;11220;48.812;9.128;2022-09-21T21:30:06;0.10;;;0.10;;
22107;SDS011;11220;48.812;9.128;2022-09-21T21:32:32;0.10;;;0.10;;
22107;SDS011;11220;48.812;9.128;2022-09-21T21:34:58;0.10;;;0.10;;
22107;SDS011;11220;48.812;9.128;2022-09-21T21:37:24;0.30;;;0.20;;
22107;SDS011;11220;48.812;9.128;2022-09-21T21:39:50;0.20;;;0.17;;
22107;SDS011;11220;48.812;9.128;2022-09-21T21:42:16;0.13;;;0.10;;
22107;SDS011;11220;48.812;9.128;2022-09-21T21:44:42;0.15;;;0.15;;
22107;SDS011;11220;48.812;9.128;2022-09-21T21:47:08;0.10;;;0.10;;
22107;SDS011;11220;48.812;9.128;2022-09-21T21:49:35;0.10;;;0.10;;
22107;SDS011;11220;48.812;9.128;2022-09-21T21:52:01;0.10;;;0.10;;
22107;SDS011;11220;48.812;9.128;2022-09-21T21:54:29;0.20;;;0.20;;
22107;SDS011;11220;48.812;9.128;2022-09-21T21:56:55;0.10;;;0.10;;
22107;SDS011;11220;48.812;9.128;2022-09-21T21:59:22;0.30;;;0.13;;
22107;SDS011;11220;48.812;9.128;2022-09-21T22:01:47;0.10;;;0.10;;
22107;SDS011;11220;48.812;9.128;2022-09-21T22:04:13;0.20;;;0.10;;
22107;SDS011;11220;48.812;9.128;2022-09-21T22:06:39;0.10;;;0.10;;
22107;SDS011;11220;48.812;9.128;2022-09-21T22:09:05;0.30;;;0.20;;
22107;SDS011;11220;48.812;9.128;2022-09-21T22:11:32;0.20;;;0.20;;
22107;SDS011;11220;48.812;9.128;2022-09-21T22:13:59;0.10;;;0.10;;
22107;SDS011;11220;48.812;9.128;2022-09-21T22:16:26;0.20;;;0.10;;
22107;SDS011;11220;48.812;9.128;2022-09-21T22:18:53;0.10;;;0.10;;
22107;SDS011;11220;48.812;9.128;2022-09-21T22:21:20;0.30;;;0.20;;
22107;SDS011;11220;48.812;9.128;2022-09-21T22:23:55;0.20;;;0.20;;
22107;SDS011;11220;48.812;9.128;2022-09-21T22:26:29;0.10;;;0.10;;
22107;SDS011;11220;48.812;9.128;2022-09-21T22:28:59;0.20;;;0.20;;
22107;SDS011;11220;48.812;9.128;2022-09-21T22:31:28;0.10;;;0.10;;
22107;SDS011;11220;48.812;9.128;2022-09-21T22:33:56;0.38;;;0.20;;
22107;SDS011;11220;48.812;9.128;2022-09-21T22:36:23;0.30;;;0.10;;
22107;SDS011;11220;48.812;9.128;2022-09-21T22:38:51;0.20;;;0.20;;
22107;SDS011;11220;48.812;9.128;2022-09-21T22:41:18;0.10;;;0.10;;
22107;SDS011;11220;48.812;9.128;2022-09-21T22:43:49;0.20;;;0.10;;
22107;SDS011;11220;48.812;9.128;2022-09-21T22:46:16;0.22;;;0.10;;
22107;SDS011;11220;48.812;9.128;2022-09-21T22:48:42;0.35;;;0.20;;
22107;SDS011;11220;48.812;9.128;2022-09-21T22:51:08;0.20;;;0.20;;
22107;SDS011;11220;48.812;9.128;2022-09-21T22:53:33;0.13;;;0.13;;
22107;SDS011;11220;48.812;9.128;2022-09-21T22:56:06;0.10;;;0.10;;
22107;SDS011;11220;48.812;9.128;2022-09-21T22:58:34;0.10;;;0.10;;
22107;SDS011;11220;48.812;9.128;2022-09-21T23:01:12;0.10;;;0.10;;
22107;SDS011;11220;48.812;9.128;2022-09-21T23:03:52;0.15;;;0.15;;
22107;SDS011;11220;48.812;9.128;2022-09-21T23:06:22;0.17;;;0.17;;
22107;SDS011;11220;48.812;9.128;2022-09-21T23:08:50;0.20;;;0.20;;
22107;SDS011;11220;48.812;9.128;2022-09-21T23:11:19;0.40;;;0.10;;
22107;SDS011;11220;48.812;9.128;2022-09-21T23:13:47;0.20;;;0.20;;
22107;SDS011;11220;48.812;9.128;2022-09-21T23:16:14;0.52;;;0.20;;
22107;SDS011;11220;48.812;9.128;2022-09-21T23:18:41;0.10;;;0.10;;
22107;SDS011;11220;48.812;9.128;2022-09-21T23:21:09;0.20;;;0.10;;
22107;SDS011;11220;48.812;9.128;2022-09-21T23:23:37;0.40;;;0.10;;
22107;SDS011;11220;48.812;9.128;2022-09-21T23:26:04;0.20;;;0.20;;
22107;SDS011;11220;48.812;9.128;2022-09-21T23:28:37;0.13;;;0.13;;
22107;SDS011;11220;48.812;9.128;2022-09-21T23:31:05;0.10;;;0.10;;
22107;SDS011;11220;48.812;9.128;2022-09-21T23:33:33;0.30;;;0.20;;
22107;SDS011;11220;48.812;9.128;2022-09-21T23:36:04;0.30;;;0.20;;
22107;SDS011;11220;48.812;9.128;2022-09-21T23:38:31;0.20;;;0.20;;
22107;SDS011;11220;48.812;9.128;2022-09-21T23:41:04;0.52;;;0.40;;
22107;SDS011;11220;48.812;9.128;2022-09-21T23:43:30;0.13;;;0.13;;
22107;SDS011;11220;48.812;9.128;2022-09-21T23:45:57;0.10;;;0.10;;
22107;SDS011;11220;48.812;9.128;2022-09-21T23:48:23;0.20;;;0.20;;
22107;SDS011;11220;48.812;9.128;2022-09-21T23:50:49;0.40;;;0.20;;
22107;SDS011;11220;48.812;9.128;2022-09-21T23:53:15;0.20;;;0.20;;
22107;SDS011;11220;48.812;9.128;2022-09-21T23:55:40;0.20;;;0.10;;
22107;SDS011;11220;48.812;9.128;2022-09-21T23:58:06;0.52;;;0.22;;
